Time;durP1;ratioP1;P1;durP2;ratioP2;P2;SDS_P1;SDS_P2;PMS_P1;PMS_P2;Temp;Humidity;BMP_temperature;BMP_pressure;BME280_temperature;BME280_humidity;BME280_pressure;Samples;Min_cycle;Max_cycle;Signal;HPM_P1;HPM_P2
2023/03/19 08:19:55;;;;;;;6.07;2.50;;;;;;;10.42;73.28;96467.31;2082381;28;20565;-62
2023/03/19 08:20:56;;;;;;;5.90;2.45;;;;;;;10.50;71.27;96480.00;2081576;28;20246;-61
2023/03/19 08:21:58;;;;;;;9.73;2.72;;;;;;;11.03;69.91;96459.19;2080355;28;20202;-61
2023/03/19 08:22:59;;;;;;;5.50;2.65;;;;;;;11.14;69.62;96475.19;2078218;28;20212;-62
2023/03/19 08:24:01;;;;;;;7.50;2.28;;;;;;;11.27;70.18;96471.03;2074946;28;20241;-59
2023/03/19 08:25:06;;;;;;;5.57;2.35;;;;;;;11.47;69.22;96474.41;2072044;28;20201;-62
2023/03/19 08:26:07;;;;;;;11.90;2.30;;;;;;;11.61;69.18;96468.47;2072010;28;20201;-62
2023/03/19 08:27:09;;;;;;;7.18;2.30;;;;;;;12.25;67.23;96473.84;2073548;28;20190;-60
2023/03/19 08:28:10;;;;;;;4.43;2.50;;;;;;;12.61;65.98;96479.78;2073115;28;20225;-60
2023/03/19 08:29:12;;;;;;;4.18;1.70;;;;;;;12.96;65.57;96476.97;2069585;28;20232;-57
2023/03/19 08:30:14;;;;;;;7.15;2.63;;;;;;;12.85;65.88;96474.94;2070964;28;20423;-57
2023/03/19 08:31:16;;;;;;;10.05;4.65;;;;;;;12.61;65.72;96478.03;2070759;28;20206;-58
2023/03/19 08:32:17;;;;;;;22.17;10.68;;;;;;;12.50;64.67;96475.97;2071166;28;20306;-58
2023/03/19 08:33:19;;;;;;;5.78;2.30;;;;;;;12.41;65.24;96477.31;2072195;28;20201;-57
2023/03/19 08:34:21;;;;;;;5.53;2.70;;;;;;;12.60;64.65;96478.13;2073110;28;20694;-58
2023/03/19 08:35:25;;;;;;;9.68;2.80;;;;;;;12.33;65.71;96471.69;2071210;28;20296;-60
2023/03/19 08:36:27;;;;;;;10.50;2.70;;;;;;;12.05;67.10;96480.19;2070620;28;20530;-60
2023/03/19 08:37:28;;;;;;;4.07;2.50;;;;;;;12.08;67.03;96485.25;2072676;28;20860;-60
2023/03/19 08:38:30;;;;;;;9.30;2.42;;;;;;;12.11;66.99;96471.97;2072036;28;20201;-61
2023/03/19 08:39:31;;;;;;;13.13;2.50;;;;;;;11.92;67.42;96483.41;2070371;28;20236;-60
2023/03/19 08:40:33;;;;;;;8.50;2.45;;;;;;;11.78;68.29;96480.66;2071121;28;20204;-60
2023/03/19 08:41:35;;;;;;;4.40;1.90;;;;;;;11.95;68.13;96481.53;2073512;28;20844;-61
2023/03/19 08:42:41;;;;;;;6.75;2.17;;;;;;;11.77;68.36;96473.75;2075836;28;20239;-60
2023/03/19 08:43:45;;;;;;;8.88;2.20;;;;;;;11.90;67.70;96473.94;2071131;28;20646;-58
2023/03/19 08:44:47;;;;;;;8.73;2.75;;;;;;;12.20;67.10;96481.97;2072722;28;20690;-58
2023/03/19 08:45:49;;;;;;;5.55;2.60;;;;;;;12.05;67.33;96488.88;2071607;28;20208;-58
2023/03/19 08:46:50;;;;;;;3.33;1.90;;;;;;;11.99;67.43;96489.19;2071365;28;20198;-60
2023/03/19 08:47:52;;;;;;;5.90;2.40;;;;;;;11.81;68.23;96480.50;2070997;28;20238;-60
2023/03/19 08:48:54;;;;;;;4.30;2.40;;;;;;;11.71;67.57;96490.59;2070854;28;20204;-60
2023/03/19 08:49:55;;;;;;;6.70;2.85;;;;;;;11.57;68.51;96480.00;2072006;28;20230;-60
2023/03/19 08:51:00;;;;;;;5.60;2.75;;;;;;;11.65;68.17;96477.00;2073080;28;20207;-60
2023/03/19 08:52:02;;;;;;;7.70;2.53;;;;;;;12.06;68.17;96482.72;2070290;28;20196;-60
2023/03/19 08:53:04;;;;;;;5.75;2.47;;;;;;;13.01;65.26;96488.88;2070818;28;20207;-60
2023/03/19 08:54:05;;;;;;;8.77;2.60;;;;;;;13.29;62.87;96487.28;2070467;28;20220;-61
2023/03/19 08:55:08;;;;;;;5.03;2.75;;;;;;;13.04;63.58;96482.63;2071199;28;20336;-60
2023/03/19 08:56:10;;;;;;;5.68;2.63;;;;;;;12.71;65.68;96484.44;2070966;28;20234;-58
2023/03/19 08:57:11;;;;;;;5.95;2.33;;;;;;;12.48;66.52;96482.22;2072912;28;20259;-58
2023/03/19 08:58:12;;;;;;;6.22;2.50;;;;;;;12.28;67.11;96488.56;2072423;28;20755;-58
2023/03/19 08:59:15;;;;;;;8.38;3.58;;;;;;;11.95;67.85;96479.78;2070636;28;20319;-58
2023/03/19 09:00:18;;;;;;;4.20;2.50;;;;;;;11.91;68.01;96486.13;2070705;28;20204;-58
2023/03/19 09:01:19;;;;;;;9.68;2.40;;;;;;;11.62;68.40;96488.47;2073371;28;20684;-58
2023/03/19 09:02:21;;;;;;;8.48;2.28;;;;;;;11.79;69.47;96491.97;2071454;28;20312;-58
2023/03/19 09:03:22;;;;;;;3.80;1.92;;;;;;;11.76;68.60;96490.38;2071928;28;20236;-58
2023/03/19 09:04:24;;;;;;;9.80;2.70;;;;;;;11.81;67.78;96490.97;2070844;28;20227;-59
2023/03/19 09:05:26;;;;;;;5.35;2.33;;;;;;;11.67;66.90;96496.91;2071053;28;20221;-58
2023/03/19 09:06:30;;;;;;;8.32;2.60;;;;;;;11.69;67.44;96483.75;2071790;28;20261;-59
2023/03/19 09:07:31;;;;;;;8.77;2.33;;;;;;;11.75;66.26;96476.44;2072904;28;20206;-58
2023/03/19 09:08:34;;;;;;;4.32;2.30;;;;;;;11.68;67.19;96485.53;2072365;28;20218;-58
2023/03/19 09:09:35;;;;;;;9.05;2.78;;;;;;;11.82;67.30;96471.75;2071243;28;20231;-58
2023/03/19 09:10:37;;;;;;;4.57;1.90;;;;;;;11.88;67.23;96483.66;2074518;28;20548;-59
2023/03/19 09:11:39;;;;;;;4.68;2.30;;;;;;;12.02;67.54;96486.41;2073195;28;20245;-59
2023/03/19 09:12:41;;;;;;;4.93;1.80;;;;;;;12.06;66.89;96471.38;2070578;28;20198;-58
2023/03/19 09:13:43;;;;;;;4.47;2.13;;;;;;;12.00;66.68;96479.56;2070301;28;20199;-58
2023/03/19 09:14:44;;;;;;;3.75;2.00;;;;;;;11.93;66.19;96486.88;2070647;28;20206;-58
2023/03/19 09:15:46;;;;;;;4.80;2.38;;;;;;;11.90;66.78;96480.03;2069490;28;20200;-58
2023/03/19 09:16:47;;;;;;;10.18;2.67;;;;;;;12.11;67.46;96486.84;2070082;28;20617;-59
2023/03/19 09:17:49;;;;;;;6.30;2.65;;;;;;;12.18;66.82;96488.22;2071112;28;20243;-58
2023/03/19 09:18:51;;;;;;;6.93;2.35;;;;;;;11.96;66.81;96491.13;2070662;28;20231;-59
2023/03/19 09:19:52;;;;;;;9.93;2.35;;;;;;;11.92;67.08;96491.25;2055800;28;20220;-58
2023/03/19 09:20:54;;;;;;;2.90;2.20;;;;;;;11.61;66.70;96473.69;2057398;28;20205;-59
2023/03/19 09:21:55;;;;;;;6.00;2.33;;;;;;;11.72;66.97;96492.28;2058199;28;20204;-58
2023/03/19 09:22:56;;;;;;;7.45;2.30;;;;;;;11.86;67.47;96490.72;2056402;28;20211;-58
2023/03/19 09:23:58;;;;;;;10.30;2.88;;;;;;;11.90;67.92;96490.50;2055690;28;20205;-59
2023/03/19 09:24:59;;;;;;;3.47;1.95;;;;;;;11.96;68.18;96496.34;2054941;28;20208;-59
2023/03/19 09:26:01;;;;;;;11.85;2.45;;;;;;;11.86;66.67;96491.59;2054307;28;20279;-58
2023/03/19 09:27:02;;;;;;;5.10;2.90;;;;;;;11.77;66.63;96492.91;2054734;28;20241;-59
2023/03/19 09:28:04;;;;;;;5.47;1.98;;;;;;;11.76;66.78;96496.44;2054700;28;20867;-59
2023/03/19 09:29:05;;;;;;;6.97;2.75;;;;;;;11.72;66.31;96488.84;2055122;28;20235;-59
2023/03/19 09:30:10;;;;;;;6.60;2.25;;;;;;;11.71;66.51;96498.44;2055320;28;20195;-58
2023/03/19 09:31:12;;;;;;;4.47;1.95;;;;;;;11.87;66.95;96492.41;2052387;28;20240;-59
2023/03/19 09:32:14;;;;;;;4.00;2.00;;;;;;;11.87;67.78;96505.50;2050321;28;20247;-58
2023/03/19 09:33:17;;;;;;;3.67;2.00;;;;;;;11.96;67.44;96497.22;2049094;28;20315;-59
2023/03/19 09:34:18;;;;;;;4.60;2.05;;;;;;;12.07;66.84;96496.63;2049303;28;20230;-59
2023/03/19 09:35:20;;;;;;;4.15;2.50;;;;;;;11.95;66.91;96499.84;2050814;28;20218;-59
2023/03/19 09:36:21;;;;;;;3.88;1.95;;;;;;;12.04;65.09;96500.25;2047989;28;20202;-58
2023/03/19 09:37:23;;;;;;;7.97;2.75;;;;;;;12.08;65.63;96493.94;2049846;28;20195;-58
2023/03/19 09:38:24;;;;;;;5.78;2.67;;;;;;;12.14;65.39;96497.16;2050524;28;20533;-59
2023/03/19 09:39:26;;;;;;;6.57;2.42;;;;;;;12.17;63.60;96484.75;2049331;28;20263;-58
2023/03/19 09:40:44;;;;;;;4.68;2.10;;;;;;;12.37;63.78;96493.31;2049221;28;20706;-59
2023/03/19 09:42:04;;;;;;;4.57;2.00;;;;;;;13.09;62.75;96496.31;2047745;28;20207;-59
2023/03/19 09:43:25;;;;;;;6.35;2.17;;;;;;;13.78;60.74;96490.63;2048714;28;20211;-59
2023/03/19 09:44:31;;;;;;;6.85;3.85;;;;;;;14.82;58.68;96495.63;2048483;28;20874;-59
2023/03/19 09:45:33;;;;;;;12.77;5.85;;;;;;;14.59;57.33;96486.53;2049374;28;20742;-60
2023/03/19 09:46:40;;;;;;;4.57;2.03;;;;;;;14.76;58.05;96490.75;2049209;28;20207;-60
2023/03/19 09:47:44;;;;;;;5.45;1.95;;;;;;;14.97;57.72;96493.75;2048952;28;20294;-61
2023/03/19 09:48:49;;;;;;;4.50;2.03;;;;;;;14.96;56.92;96492.94;2048870;28;20731;-61
2023/03/19 09:49:52;;;;;;;8.75;2.80;;;;;;;15.79;55.03;96477.84;2050427;28;20215;-61
2023/03/19 09:50:55;;;;;;;5.93;1.80;;;;;;;16.20;54.32;96479.44;2048856;28;20228;-61
2023/03/19 09:52:06;;;;;;;5.85;2.10;;;;;;;17.10;53.10;96483.63;2051332;28;20219;-61
2023/03/19 09:53:36;;;;;;;4.63;2.70;;;;;;;18.53;49.64;96479.81;2058907;28;20222;-61
2023/03/19 09:54:38;;;;;;;5.15;2.20;;;;;;;18.98;47.17;96475.44;2055946;28;20234;-62
2023/03/19 09:55:43;;;;;;;9.10;2.40;;;;;;;18.27;46.35;96464.22;2048867;28;20262;-62
2023/03/19 09:56:45;;;;;;;4.78;2.05;;;;;;;18.55;46.27;96477.03;2048873;28;20207;-61
2023/03/19 09:57:47;;;;;;;4.93;2.15;;;;;;;18.98;44.38;96471.00;2048952;28;20291;-62
2023/03/19 09:58:48;;;;;;;8.02;2.10;;;;;;;18.74;44.22;96465.84;2048728;28;20204;-60
2023/03/19 09:59:52;;;;;;;5.95;1.67;;;;;;;18.57;44.93;96475.13;2048958;28;20196;-62
2023/03/19 10:00:54;;;;;;;4.32;1.88;;;;;;;18.33;43.87;96454.97;2048995;28;20607;-61
2023/03/19 10:02:14;;;;;;;7.22;1.92;;;;;;;18.55;45.20;96462.03;2048558;29;20204;-61
2023/03/19 10:03:19;;;;;;;5.82;1.70;;;;;;;18.89;44.93;96466.41;2048495;28;20200;-61
2023/03/19 10:04:42;;;;;;;4.97;1.48;;;;;;;19.83;43.82;96464.00;2047814;28;20350;-61
2023/03/19 10:05:55;;;;;;;4.50;2.15;;;;;;;19.28;43.55;96465.94;2049134;28;20656;-61
2023/03/19 10:07:27;;;;;;;3.70;2.03;;;;;;;17.59;46.13;96474.69;2049204;28;20671;-61
2023/03/19 10:08:30;;;;;;;4.30;1.80;;;;;;;17.10;48.16;96478.34;2050696;28;20200;-61
2023/03/19 10:09:44;;;;;;;4.57;2.03;;;;;;;17.67;46.97;96473.25;2048313;28;20219;-61
2023/03/19 10:10:49;;;;;;;3.75;1.70;;;;;;;18.70;46.24;96470.56;2048003;29;20199;-60
2023/03/19 10:12:16;;;;;;;7.63;1.85;;;;;;;18.94;43.32;96469.53;2048833;28;20668;-60
2023/03/19 10:13:38;;;;;;;9.13;2.17;;;;;;;18.27;44.53;96471.28;2048130;29;20575;-60
2023/03/19 10:15:01;;;;;;;5.00;2.22;;;;;;;18.06;46.46;96477.31;2047955;28;20574;-60
2023/03/19 10:16:03;;;;;;;7.15;2.15;;;;;;;17.29;46.05;96475.19;2050276;28;20200;-60
2023/03/19 10:17:11;;;;;;;7.18;2.33;;;;;;;17.60;46.59;96478.19;2049581;28;20640;-60
2023/03/19 10:18:18;;;;;;;5.45;1.85;;;;;;;18.15;45.34;96477.56;2049387;28;20223;-60
2023/03/19 10:19:35;;;;;;;4.57;1.92;;;;;;;18.61;43.59;96468.63;2055225;28;20689;-60
2023/03/19 10:20:59;;;;;;;3.55;1.83;;;;;;;19.03;44.39;96482.03;2065417;28;20586;-60
2023/03/19 10:22:06;;;;;;;5.97;1.63;;;;;;;18.97;42.13;96481.69;2065949;28;20210;-60
2023/03/19 10:23:29;;;;;;;3.58;1.40;;;;;;;18.75;43.03;96475.44;2067167;28;20238;-60
2023/03/19 10:24:36;;;;;;;3.30;1.58;;;;;;;18.58;42.91;96482.94;2066480;28;20708;-60
2023/03/19 10:25:40;;;;;;;2.70;1.30;;;;;;;18.55;42.10;96474.41;2068101;28;20205;-60
2023/03/19 10:26:44;;;;;;;4.40;2.00;;;;;;;19.08;42.11;96469.28;2065184;28;20202;-60
2023/03/19 10:27:59;;;;;;;8.05;2.10;;;;;;;19.58;41.49;96473.16;2064934;28;20285;-61
2023/03/19 10:29:09;;;;;;;3.25;1.42;;;;;;;19.07;42.38;96470.25;2064707;28;21555;-60
2023/03/19 10:30:14;;;;;;;6.07;1.58;;;;;;;19.79;41.83;96469.66;2063704;28;20198;-60
2023/03/19 10:31:28;;;;;;;4.47;1.80;;;;;;;19.62;41.63;96466.63;2072304;28;20239;-60
2023/03/19 10:32:44;;;;;;;5.85;1.73;;;;;;;18.05;43.01;96467.69;2070511;28;20204;-60
2023/03/19 10:34:10;;;;;;;5.55;1.85;;;;;;;18.03;43.76;96463.50;2064272;28;20194;-60
2023/03/19 10:35:23;;;;;;;8.52;1.60;;;;;;;17.37;44.32;96466.69;2065425;28;20205;-60
2023/03/19 10:36:29;;;;;;;4.45;2.03;;;;;;;17.01;45.47;96457.94;2066245;28;20198;-60
2023/03/19 10:37:34;;;;;;;6.43;1.80;;;;;;;17.05;46.04;96464.66;2066771;28;20546;-60
2023/03/19 10:38:42;;;;;;;3.22;1.65;;;;;;;16.65;47.15;96463.94;2065002;28;20194;-60
2023/03/19 10:39:46;;;;;;;6.18;2.15;;;;;;;16.08;47.81;96459.22;2064564;28;20245;-59
2023/03/19 10:41:04;;;;;;;9.93;2.10;;;;;;;15.53;48.66;96467.31;2065676;28;20246;-60
2023/03/19 10:42:43;;;;;;;2.60;1.73;;;;;;;15.28;49.83;96462.84;2065009;28;20206;-59
2023/03/19 10:43:55;;;;;;;5.50;2.03;;;;;;;15.22;50.27;96463.25;2065418;28;20197;-60
2023/03/19 10:45:17;;;;;;;4.75;2.47;;;;;;;15.29;50.20;96461.91;2064438;28;20199;-61
2023/03/19 10:46:20;;;;;;;5.97;2.33;;;;;;;15.05;51.18;96467.84;2064833;28;20230;-61
2023/03/19 10:47:25;;;;;;;11.48;2.10;;;;;;;14.99;51.23;96465.59;2065172;28;20203;-62
2023/03/19 10:48:26;;;;;;;4.70;1.80;;;;;;;14.78;51.45;96447.66;2064613;28;20214;-62
2023/03/19 10:49:34;;;;;;;7.38;2.10;;;;;;;15.05;51.67;96453.84;2063932;28;20911;-62
2023/03/19 10:50:52;;;;;;;7.07;1.65;;;;;;;15.13;51.51;96454.19;2067146;28;20200;-61
2023/03/19 10:51:56;;;;;;;5.43;2.10;;;;;;;15.28;52.09;96450.53;2064359;28;20213;-62
2023/03/19 10:53:05;;;;;;;6.20;2.45;;;;;;;15.39;51.74;96455.09;2065315;28;20208;-62
2023/03/19 10:54:22;;;;;;;4.90;1.88;;;;;;;15.42;51.76;96456.66;2063471;28;20249;-61
2023/03/19 10:55:25;;;;;;;7.78;2.60;;;;;;;15.43;51.13;96461.81;2065943;28;20583;-60
2023/03/19 10:56:32;;;;;;;4.60;1.85;;;;;;;15.18;51.32;96447.69;2064570;28;20210;-62
2023/03/19 10:57:34;;;;;;;6.80;1.75;;;;;;;15.34;51.42;96458.00;2063639;28;20265;-62
2023/03/19 10:58:36;;;;;;;8.25;2.35;;;;;;;15.43;51.38;96440.75;2064790;28;20662;-62
2023/03/19 10:59:37;;;;;;;8.10;2.53;;;;;;;15.32;51.04;96448.53;2065182;28;20316;-62
2023/03/19 11:00:39;;;;;;;3.58;1.98;;;;;;;15.68;51.22;96452.28;2066934;28;20217;-61
2023/03/19 11:01:41;;;;;;;6.25;1.60;;;;;;;15.72;50.67;96448.47;2066680;28;20198;-62
2023/03/19 11:02:48;;;;;;;6.05;2.03;;;;;;;15.92;50.66;96441.88;2065684;28;20297;-62
2023/03/19 11:03:55;;;;;;;5.28;2.05;;;;;;;15.96;50.66;96443.34;2065045;28;20202;-62
2023/03/19 11:05:20;;;;;;;5.30;2.20;;;;;;;16.23;49.85;96444.97;2065020;28;20673;-62
2023/03/19 11:06:26;;;;;;;3.90;1.65;;;;;;;16.85;48.56;96437.94;2065704;28;20206;-62
2023/03/19 11:07:32;;;;;;;4.93;2.72;;;;;;;16.62;48.39;96443.09;2063978;28;20644;-62
2023/03/19 11:08:36;;;;;;;5.30;1.70;;;;;;;16.40;49.12;96442.94;2064597;28;20198;-61
2023/03/19 11:09:41;;;;;;;6.78;2.20;;;;;;;16.12;49.48;96434.34;2064101;28;20222;-62
2023/03/19 11:10:48;;;;;;;7.00;2.55;;;;;;;16.02;50.11;96431.50;2065745;28;20531;-61
2023/03/19 11:11:56;;;;;;;10.25;2.10;;;;;;;16.14;50.16;96438.56;2064734;28;20197;-62
2023/03/19 11:13:04;;;;;;;5.50;2.20;;;;;;;16.28;49.19;96434.94;2063990;28;20646;-62
2023/03/19 11:14:20;;;;;;;5.63;2.15;;;;;;;16.55;48.87;96438.38;2063485;28;20234;-62
2023/03/19 11:15:36;;;;;;;10.85;1.70;;;;;;;16.93;48.72;96432.94;2063987;28;20195;-62
2023/03/19 11:16:53;;;;;;;8.63;1.98;;;;;;;16.79;49.99;96439.22;2066629;28;20232;-62
2023/03/19 11:17:57;;;;;;;2.65;1.55;;;;;;;16.29;49.87;96434.00;2064700;28;20201;-62
2023/03/19 11:18:59;;;;;;;3.70;2.30;;;;;;;16.13;50.29;96407.91;2064132;28;20201;-60
2023/03/19 11:20:28;;;;;;;11.38;5.82;;;;;;;17.00;48.59;96433.38;2064803;28;20620;-60
2023/03/19 11:21:31;;;;;;;7.70;3.15;;;;;;;16.99;48.43;96429.03;2062494;28;20605;-61
2023/03/19 11:22:36;;;;;;;9.20;3.10;;;;;;;16.76;48.31;96428.91;2063240;28;20211;-61
2023/03/19 11:23:41;;;;;;;3.95;1.83;;;;;;;16.47;49.59;96426.56;2063955;28;20234;-62
2023/03/19 11:25:19;;;;;;;6.88;2.30;;;;;;;16.67;49.26;96434.00;2064530;28;20221;-62
2023/03/19 11:26:22;;;;;;;10.48;2.33;;;;;;;16.46;49.26;96437.22;2064277;28;20214;-62
2023/03/19 11:27:33;;;;;;;6.78;2.22;;;;;;;16.10;50.12;96437.09;2064316;28;20206;-62
2023/03/19 11:28:36;;;;;;;5.15;2.20;;;;;;;16.04;50.43;96434.91;2064707;28;20198;-62
2023/03/19 11:29:43;;;;;;;4.25;1.95;;;;;;;16.05;50.37;96427.81;2066010;28;20230;-62
2023/03/19 11:31:22;;;;;;;6.00;1.67;;;;;;;15.92;51.00;96428.72;2067749;28;20229;-62
2023/03/19 11:32:56;;;;;;;5.25;1.88;;;;;;;15.84;51.21;96433.66;2072287;28;20194;-62
2023/03/19 11:34:22;;;;;;;6.53;2.10;;;;;;;15.40;52.46;96437.50;2055886;28;20269;-63
2023/03/19 11:35:43;;;;;;;4.30;2.10;;;;;;;15.17;52.97;96431.97;2063400;28;20202;-62
2023/03/19 11:37:07;;;;;;;5.45;1.92;;;;;;;15.10;53.20;96433.34;2063167;28;20190;-61
2023/03/19 11:38:23;;;;;;;6.93;2.60;;;;;;;14.95;54.25;96425.50;2064863;28;20751;-61
2023/03/19 11:39:57;;;;;;;4.63;2.20;;;;;;;15.14;54.01;96426.94;2064907;28;20683;-61
2023/03/19 11:41:10;;;;;;;7.10;2.45;;;;;;;15.11;54.60;96424.50;2066950;28;20217;-62
2023/03/19 11:42:44;;;;;;;6.20;1.98;;;;;;;14.37;55.04;96432.72;2065737;28;20206;-61
2023/03/19 11:43:58;;;;;;;5.72;2.20;;;;;;;14.47;55.10;96420.69;2064495;28;20226;-61
2023/03/19 11:45:11;;;;;;;4.75;2.20;;;;;;;14.38;55.32;96423.91;2064357;28;20197;-60
2023/03/19 11:46:18;;;;;;;4.05;2.08;;;;;;;14.40;56.12;96427.28;2063738;28;20209;-61
2023/03/19 11:47:31;;;;;;;2.90;1.73;;;;;;;14.40;56.04;96422.03;2065148;28;20341;-61
2023/03/19 11:48:41;;;;;;;8.77;1.60;;;;;;;14.27;56.42;96427.22;2067200;28;20194;-61
2023/03/19 11:49:59;;;;;;;6.80;2.30;;;;;;;14.26;56.38;96429.91;2063947;28;20218;-61
2023/03/19 11:51:15;;;;;;;8.88;2.47;;;;;;;14.38;56.14;96423.91;2064018;28;20197;-61
2023/03/19 11:52:27;;;;;;;3.95;2.03;;;;;;;14.41;56.82;96428.97;2063573;28;20194;-61
2023/03/19 11:53:35;;;;;;;6.70;2.20;;;;;;;14.40;56.56;96439.56;2064155;28;20210;-60
2023/03/19 11:54:57;;;;;;;8.68;1.92;;;;;;;14.29;56.90;96433.19;2062871;28;20219;-61
2023/03/19 11:56:28;;;;;;;4.53;1.92;;;;;;;14.27;57.15;96445.59;2063735;28;20241;-61
2023/03/19 11:57:45;;;;;;;10.63;1.90;;;;;;;13.86;58.21;96444.59;2063252;28;20210;-61
2023/03/19 11:58:56;;;;;;;8.60;2.72;;;;;;;13.81;62.34;96445.81;2063993;28;20225;-60
2023/03/19 12:00:25;;;;;;;5.18;2.20;;;;;;;13.51;62.16;96442.31;2064412;28;20643;-61
2023/03/19 12:01:40;;;;;;;5.60;1.70;;;;;;;13.63;64.74;96443.34;2064802;28;20257;-61
2023/03/19 12:03:01;;;;;;;13.30;2.50;;;;;;;13.55;65.76;96438.56;2064060;28;20671;-61
2023/03/19 12:04:32;;;;;;;4.15;1.77;;;;;;;13.61;66.20;96431.25;2063745;28;20229;-61
2023/03/19 12:05:43;;;;;;;8.05;2.03;;;;;;;13.60;67.16;96435.69;2065212;28;20791;-61
2023/03/19 12:07:03;;;;;;;4.53;1.98;;;;;;;13.57;67.77;96435.00;2064436;28;20201;-61
2023/03/19 12:08:13;;;;;;;8.18;1.80;;;;;;;13.61;68.46;96434.75;2068207;28;20221;-61
2023/03/19 12:09:26;;;;;;;4.85;2.25;;;;;;;13.66;67.83;96432.69;2063351;28;20230;-61
2023/03/19 12:10:52;;;;;;;9.05;2.20;;;;;;;13.73;67.69;96441.03;2064847;28;20202;-61
2023/03/19 12:11:56;;;;;;;3.35;2.13;;;;;;;13.86;67.44;96441.97;2064123;28;20202;-61
2023/03/19 12:13:22;;;;;;;5.35;1.70;;;;;;;13.95;66.86;96437.09;2063792;28;20205;-61
2023/03/19 12:14:38;;;;;;;3.65;2.10;;;;;;;13.94;67.08;96423.13;2065521;28;20320;-61
2023/03/19 12:16:14;;;;;;;3.42;1.77;;;;;;;14.01;66.94;96442.78;2063327;28;20198;-61
2023/03/19 12:18:00;;;;;;;6.30;1.52;;;;;;;14.12;66.40;96443.91;2063762;28;20669;-61
2023/03/19 12:19:38;;;;;;;4.60;1.75;;;;;;;14.05;64.78;96440.81;2060433;28;20300;-61
2023/03/19 12:20:47;;;;;;;4.88;1.95;;;;;;;14.09;64.51;96442.31;2063410;28;20201;-62
2023/03/19 12:21:51;;;;;;;7.00;2.08;;;;;;;13.96;64.78;96439.63;2064334;28;20253;-61
2023/03/19 12:23:11;;;;;;;5.10;1.60;;;;;;;14.17;64.78;96440.06;2062546;28;20682;-62
2023/03/19 12:24:31;;;;;;;3.60;1.70;;;;;;;14.46;64.23;96433.91;2063514;28;20257;-62
2023/03/19 12:25:32;;;;;;;5.55;1.42;;;;;;;14.56;63.77;96429.75;2063943;28;20201;-62
2023/03/19 12:26:49;;;;;;;4.00;1.95;;;;;;;14.65;63.00;96436.25;2064797;28;20230;-62
2023/03/19 12:27:58;;;;;;;4.55;1.90;;;;;;;14.62;62.82;96432.00;2064905;28;20636;-62
2023/03/19 12:29:19;;;;;;;7.03;1.50;;;;;;;14.71;63.39;96435.00;2063609;28;20561;-62
2023/03/19 12:30:43;;;;;;;4.68;1.70;;;;;;;14.86;63.14;96431.38;2071809;28;20841;-62
2023/03/19 12:31:59;;;;;;;9.23;2.20;;;;;;;14.83;62.34;96427.19;2068360;28;20230;-62
2023/03/19 12:33:35;;;;;;;4.95;1.83;;;;;;;14.80;62.40;96439.66;2063963;28;20209;-62
2023/03/19 12:34:44;;;;;;;12.48;2.28;;;;;;;14.65;63.10;96428.34;2064365;28;20230;-62
2023/03/19 12:35:49;;;;;;;7.60;2.28;;;;;;;14.83;63.49;96439.44;2064347;28;20198;-62
2023/03/19 12:37:03;;;;;;;4.80;1.95;;;;;;;14.64;63.68;96438.03;2064196;28;20233;-61
2023/03/19 12:38:04;;;;;;;3.67;1.83;;;;;;;14.78;63.35;96434.50;2066793;28;20201;-62
2023/03/19 12:39:13;;;;;;;6.85;1.52;;;;;;;15.12;62.11;96436.72;2063607;28;20226;-62
2023/03/19 12:40:27;;;;;;;4.45;2.13;;;;;;;15.59;61.20;96437.09;2063318;28;20217;-62
2023/03/19 12:41:32;;;;;;;3.42;1.88;;;;;;;15.57;61.01;96437.19;2063562;28;20210;-62
2023/03/19 12:42:38;;;;;;;4.90;1.70;;;;;;;15.55;60.44;96433.00;2064910;28;20210;-62
2023/03/19 12:43:52;;;;;;;7.80;1.90;;;;;;;15.28;60.28;96433.91;2064045;28;20202;-62
2023/03/19 12:44:58;;;;;;;6.05;1.60;;;;;;;15.24;60.43;96427.19;2064396;28;20829;-62
2023/03/19 12:46:05;;;;;;;4.10;1.65;;;;;;;15.33;60.55;96431.81;2064011;28;20198;-62
2023/03/19 12:47:15;;;;;;;4.57;1.80;;;;;;;15.49;60.01;96432.47;2064937;28;20290;-62
2023/03/19 12:48:24;;;;;;;8.32;1.75;;;;;;;15.19;60.09;96424.84;2065827;28;20228;-62
2023/03/19 12:49:36;;;;;;;7.07;1.83;;;;;;;15.25;60.68;96431.47;2062823;28;20260;-62
2023/03/19 12:50:42;;;;;;;8.50;1.60;;;;;;;15.02;61.10;96431.22;2071293;28;20204;-62
2023/03/19 12:51:58;;;;;;;4.78;1.90;;;;;;;15.14;62.42;96429.56;2070488;28;20197;-64
2023/03/19 12:53:04;;;;;;;5.28;1.52;;;;;;;15.32;61.11;96430.13;2064523;28;20222;-64
2023/03/19 12:54:17;;;;;;;3.67;1.52;;;;;;;15.32;61.06;96436.22;2065605;28;20221;-64
2023/03/19 12:55:54;;;;;;;5.35;1.85;;;;;;;15.24;61.69;96427.19;2064105;28;20607;-64
2023/03/19 12:57:02;;;;;;;5.45;1.33;;;;;;;15.37;61.76;96417.50;2054934;28;20275;-64
2023/03/19 12:58:33;;;;;;;5.32;1.77;;;;;;;15.44;61.86;96426.66;2063072;28;20206;-64
2023/03/19 13:00:00;;;;;;;3.60;2.05;;;;;;;15.60;61.57;96425.63;2065147;28;20631;-64
2023/03/19 13:01:11;;;;;;;5.13;1.60;;;;;;;15.67;61.57;96421.63;2065442;28;20190;-64
2023/03/19 13:02:17;;;;;;;3.85;1.25;;;;;;;15.47;60.21;96420.34;2062825;28;20257;-63
2023/03/19 13:03:43;;;;;;;3.25;1.92;;;;;;;15.52;61.61;96420.88;2062869;28;20191;-63
2023/03/19 13:05:21;;;;;;;5.15;1.85;;;;;;;15.54;60.80;96416.38;2063715;28;20235;-63
2023/03/19 13:07:06;;;;;;;8.50;2.15;;;;;;;14.99;62.44;96427.00;2066163;28;20542;-64
2023/03/19 13:08:28;;;;;;;12.10;6.30;;;;;;;15.22;62.48;96421.16;2065348;28;20546;-62
2023/03/19 13:09:55;;;;;;;17.48;7.90;;;;;;;15.28;61.70;96421.59;2064316;28;20230;-62
2023/03/19 13:10:57;;;;;;;166.77;104.78;;;;;;;15.41;60.64;96418.13;2043162;28;20215;-62
2023/03/19 13:12:09;;;;;;;14.38;8.15;;;;;;;15.32;59.57;96423.06;2065879;28;20206;-62
2023/03/19 13:13:27;;;;;;;7.40;2.30;;;;;;;15.14;60.00;96419.06;2064906;28;20198;-62
2023/03/19 13:14:49;;;;;;;3.63;1.75;;;;;;;15.14;60.00;96422.50;2065389;28;20226;-63
2023/03/19 13:15:57;;;;;;;3.28;1.52;;;;;;;15.08;59.61;96411.56;2066213;28;20202;-62
2023/03/19 13:17:19;;;;;;;8.15;1.67;;;;;;;15.08;59.03;96415.03;2064497;28;20256;-62
2023/03/19 13:18:45;;;;;;;3.15;1.38;;;;;;;15.04;60.34;96423.25;2066551;28;20297;-62
2023/03/19 13:19:53;;;;;;;1.60;1.20;;;;;;;14.85;59.81;96414.78;2066128;28;20260;-62
2023/03/19 13:21:20;;;;;;;2.78;1.33;;;;;;;14.85;58.60;96427.94;2066337;28;20230;-62
2023/03/19 13:22:26;;;;;;;5.10;1.90;;;;;;;14.88;58.37;96428.66;2065076;28;20210;-62
2023/03/19 13:23:32;;;;;;;3.35;1.40;;;;;;;14.90;58.49;96424.16;2065777;28;20248;-62
2023/03/19 13:24:39;;;;;;;3.47;1.50;;;;;;;14.77;58.44;96422.31;2065134;28;20281;-62
2023/03/19 13:25:47;;;;;;;3.47;1.50;;;;;;;14.82;58.68;96425.47;2066684;28;20724;-62
2023/03/19 13:26:51;;;;;;;3.05;2.00;;;;;;;14.67;56.65;96422.06;2066533;28;20201;-62
2023/03/19 13:27:54;;;;;;;5.32;2.17;;;;;;;14.59;57.72;96434.84;2065694;28;20202;-61
2023/03/19 13:29:00;;;;;;;3.72;1.33;;;;;;;14.56;59.52;96435.00;2064457;28;20198;-61
2023/03/19 13:30:02;;;;;;;2.65;1.15;;;;;;;14.74;59.11;96427.78;2065442;28;20195;-61
2023/03/19 13:31:07;;;;;;;3.97;1.52;;;;;;;14.84;58.61;96434.13;2067359;28;20569;-61
2023/03/19 13:32:23;;;;;;;3.80;1.70;;;;;;;14.81;58.69;96434.31;2064890;28;20194;-61
2023/03/19 13:33:25;;;;;;;4.68;1.65;;;;;;;14.73;58.89;96433.97;2065036;28;20202;-61
2023/03/19 13:34:30;;;;;;;4.00;1.50;;;;;;;14.84;58.93;96435.88;2071794;28;20229;-61
2023/03/19 13:35:48;;;;;;;8.73;1.90;;;;;;;14.93;58.85;96430.06;2072259;28;20201;-61
2023/03/19 13:36:56;;;;;;;6.00;1.50;;;;;;;14.98;58.50;96430.59;2064943;28;20229;-62
2023/03/19 13:38:02;;;;;;;4.97;1.90;;;;;;;15.03;58.75;96432.91;2065819;28;20670;-61
2023/03/19 13:39:14;;;;;;;3.55;1.42;;;;;;;15.14;59.01;96426.94;2064204;28;20756;-61
2023/03/19 13:40:38;;;;;;;3.70;1.45;;;;;;;15.10;59.06;96430.72;2065813;28;20289;-61
2023/03/19 13:41:41;;;;;;;2.83;1.30;;;;;;;15.13;59.68;96433.97;2072164;28;20748;-61
2023/03/19 13:42:43;;;;;;;5.10;1.75;;;;;;;15.20;59.49;96431.78;2071481;28;20206;-61
2023/03/19 13:43:54;;;;;;;3.92;1.40;;;;;;;15.26;59.89;96430.53;2065119;28;20191;-62
2023/03/19 13:45:03;;;;;;;5.25;1.50;;;;;;;15.17;60.18;96429.34;2064546;28;20199;-61
2023/03/19 14:15:08;;;;;;;3.33;1.73;;;;;;;14.69;65.48;96425.44;2096470;27;20551;-60
2023/03/19 14:16:32;;;;;;;4.53;2.40;;;;;;;14.66;66.29;96430.06;2094227;28;20200;-60
2023/03/19 14:17:40;;;;;;;3.67;1.85;;;;;;;14.48;66.00;96422.38;2092292;28;20199;-63